createdAt,value
2023-12-10T00:01:19.731Z,24.88
2023-12-10T00:03:47.182Z,19.35
2023-12-10T00:06:15.094Z,17.50
2023-12-10T00:08:42.454Z,18.77
2023-12-10T00:11:09.801Z,30.65
2023-12-10T00:13:37.022Z,28.52
2023-12-10T00:16:04.397Z,29.40
2023-12-10T00:18:31.706Z,27.80
2023-12-10T00:20:59.006Z,30.17
2023-12-10T00:23:26.182Z,26.08
2023-12-10T00:25:53.343Z,18.35
2023-12-10T00:28:20.608Z,19.05
2023-12-10T00:30:49.372Z,24.83
2023-12-10T00:33:17.472Z,16.83
2023-12-10T00:35:44.820Z,28.60
2023-12-10T00:38:12.100Z,18.15
2023-12-10T00:40:39.520Z,18.90
2023-12-10T00:43:06.792Z,23.00
2023-12-10T00:45:34.153Z,22.40
2023-12-10T00:48:01.587Z,20.98
2023-12-10T00:50:29.062Z,21.15
2023-12-10T00:52:56.224Z,21.38
2023-12-10T00:55:23.501Z,20.00
2023-12-10T00:57:50.840Z,21.08
2023-12-10T01:00:19.008Z,22.55
2023-12-10T01:02:46.809Z,33.38
2023-12-10T01:05:14.132Z,21.05
2023-12-10T01:07:41.479Z,21.55
2023-12-10T01:10:08.948Z,18.30
2023-12-10T01:12:38.670Z,20.60
2023-12-10T01:15:12.531Z,22.55
2023-12-10T01:17:39.854Z,21.77
2023-12-10T01:20:07.669Z,18.77
2023-12-10T01:22:34.900Z,28.50
2023-12-10T01:25:02.553Z,23.42
2023-12-10T01:27:29.776Z,23.15
2023-12-10T01:29:57.025Z,23.50
2023-12-10T01:32:24.254Z,18.20
2023-12-10T01:34:51.606Z,22.48
2023-12-10T01:37:18.919Z,19.88
2023-12-10T01:39:46.210Z,21.90
2023-12-10T01:42:13.468Z,19.17
2023-12-10T01:44:41.168Z,16.73
2023-12-10T01:47:11.688Z,19.85
2023-12-10T01:49:39.956Z,23.33
2023-12-10T01:52:08.429Z,15.65
2023-12-10T01:54:35.760Z,18.95
2023-12-10T01:57:07.218Z,17.95
2023-12-10T01:59:36.627Z,22.70
2023-12-10T02:02:04.810Z,22.85
2023-12-10T02:04:32.005Z,15.60
2023-12-10T02:06:59.275Z,15.48
2023-12-10T02:09:27.933Z,10.32
2023-12-10T02:11:55.933Z,20.20
2023-12-10T02:14:23.144Z,20.27
2023-12-10T02:16:50.331Z,20.42
2023-12-10T02:19:17.622Z,11.68
2023-12-10T02:21:51.673Z,13.55
2023-12-10T02:24:27.326Z,12.95
2023-12-10T02:26:56.679Z,15.00
2023-12-10T02:29:24.416Z,18.65
2023-12-10T02:31:51.667Z,14.13
2023-12-10T02:34:19.538Z,13.60
2023-12-10T02:36:46.883Z,20.50
2023-12-10T02:39:14.146Z,24.50
2023-12-10T02:41:41.410Z,18.05
2023-12-10T02:44:08.608Z,16.67
2023-12-10T02:46:35.859Z,14.48
2023-12-10T02:49:03.153Z,10.80
2023-12-10T02:51:30.406Z,15.93
2023-12-10T02:53:57.610Z,11.90
2023-12-10T02:56:24.865Z,13.02
2023-12-10T02:58:52.051Z,13.50
2023-12-10T03:01:19.278Z,16.85
2023-12-10T03:03:46.564Z,13.63
2023-12-10T03:06:13.912Z,14.73
2023-12-10T03:08:41.154Z,16.05
2023-12-10T03:11:08.409Z,12.52
2023-12-10T03:13:36.043Z,16.73
2023-12-10T03:16:03.280Z,15.65
2023-12-10T03:18:31.243Z,11.32
2023-12-10T03:20:58.482Z,18.40
2023-12-10T03:23:25.718Z,15.95
2023-12-10T03:25:52.864Z,10.55
2023-12-10T03:28:20.101Z,11.70
2023-12-10T03:30:47.365Z,17.13
2023-12-10T03:33:14.748Z,20.50
2023-12-10T03:35:42.098Z,14.38
2023-12-10T03:38:09.279Z,17.48
2023-12-10T03:40:36.410Z,11.15
2023-12-10T03:43:03.672Z,16.58
2023-12-10T03:45:30.935Z,15.00
2023-12-10T03:47:58.322Z,17.67
2023-12-10T03:50:25.530Z,17.08
2023-12-10T03:52:52.774Z,20.70
2023-12-10T03:55:19.993Z,14.23
2023-12-10T03:57:50.356Z,12.18
2023-12-10T04:00:18.594Z,18.23
2023-12-10T04:02:45.990Z,12.68
2023-12-10T04:05:13.955Z,12.55
2023-12-10T04:07:41.845Z,15.73
2023-12-10T04:10:09.681Z,18.83
2023-12-10T04:12:37.015Z,13.48
2023-12-10T04:15:05.372Z,13.93
2023-12-10T04:17:32.679Z,11.60
2023-12-10T04:20:00.121Z,18.38
2023-12-10T04:22:28.897Z,19.08
2023-12-10T04:24:56.283Z,17.55
2023-12-10T04:27:24.652Z,16.58
2023-12-10T04:29:52.907Z,12.23
2023-12-10T04:32:20.188Z,14.40
2023-12-10T04:34:47.587Z,16.90
2023-12-10T04:37:14.869Z,14.10
2023-12-10T04:39:42.148Z,18.88
2023-12-10T04:42:09.421Z,16.25
2023-12-10T04:44:36.716Z,15.38
2023-12-10T04:47:04.041Z,18.13
2023-12-10T04:49:31.275Z,13.07
2023-12-10T04:52:01.148Z,24.50
2023-12-10T04:54:28.962Z,9.85
2023-12-10T04:56:56.209Z,16.65
2023-12-10T04:59:23.484Z,16.45
2023-12-10T05:01:50.688Z,17.10
2023-12-10T05:04:18.083Z,20.58
2023-12-10T05:06:45.464Z,14.63
2023-12-10T05:09:12.876Z,16.52
2023-12-10T05:11:40.312Z,26.35
2023-12-10T05:14:13.842Z,18.83
2023-12-10T05:16:41.065Z,18.80
2023-12-10T05:19:08.419Z,22.33
2023-12-10T05:21:36.035Z,18.40
2023-12-10T05:24:03.576Z,17.77
2023-12-10T05:26:31.393Z,14.00
2023-12-10T05:28:58.572Z,20.52
2023-12-10T05:31:25.828Z,14.35
2023-12-10T05:33:53.110Z,19.50
2023-12-10T05:36:20.454Z,20.40
2023-12-10T05:38:47.736Z,15.45
2023-12-10T05:41:15.631Z,16.33
2023-12-10T05:43:42.835Z,17.92
2023-12-10T05:46:10.613Z,14.95
2023-12-10T05:48:37.951Z,18.58
2023-12-10T05:51:05.438Z,12.18
2023-12-10T05:53:32.698Z,17.42
2023-12-10T05:56:02.020Z,12.18
2023-12-10T05:58:29.537Z,15.60
2023-12-10T06:00:56.878Z,18.27
2023-12-10T06:03:26.489Z,14.60
2023-12-10T06:05:53.784Z,11.65
2023-12-10T06:08:20.968Z,14.05
2023-12-10T06:10:48.288Z,14.27
2023-12-10T06:13:15.589Z,16.75
2023-12-10T06:15:42.917Z,14.07
2023-12-10T06:18:10.228Z,10.02
2023-12-10T06:20:37.514Z,14.93
2023-12-10T06:23:04.808Z,18.80
2023-12-10T06:25:32.001Z,12.85
2023-12-10T06:27:59.298Z,15.75
2023-12-10T06:30:26.517Z,10.65
2023-12-10T06:32:56.515Z,15.63
2023-12-10T06:35:24.176Z,15.40
2023-12-10T06:37:51.568Z,9.43
2023-12-10T06:40:18.849Z,12.10
2023-12-10T06:42:46.434Z,14.20
2023-12-10T06:45:14.564Z,14.70
2023-12-10T06:47:42.475Z,11.30
2023-12-10T06:50:11.011Z,15.80
2023-12-10T06:52:38.478Z,16.85
2023-12-10T06:55:06.039Z,15.90
2023-12-10T06:57:33.825Z,13.05
2023-12-10T07:00:03.740Z,19.85
2023-12-10T07:02:31.303Z,11.30
2023-12-10T07:04:58.693Z,9.93
2023-12-10T07:07:25.857Z,15.20
2023-12-10T07:09:53.157Z,13.68
2023-12-10T07:12:20.747Z,15.65
2023-12-10T07:14:51.795Z,15.85
2023-12-10T07:17:19.167Z,14.02
2023-12-10T07:19:47.554Z,19.10
2023-12-10T07:22:14.902Z,12.02
2023-12-10T07:24:42.210Z,10.85
2023-12-10T07:27:09.429Z,14.32
2023-12-10T07:29:36.900Z,13.35
2023-12-10T07:32:04.314Z,14.27
2023-12-10T07:34:31.634Z,14.35
2023-12-10T07:37:01.132Z,16.08
2023-12-10T07:39:31.395Z,10.88
2023-12-10T07:42:00.309Z,11.48
2023-12-10T07:44:27.492Z,13.45
2023-12-10T07:46:54.796Z,19.15
2023-12-10T07:49:22.029Z,12.85
2023-12-10T07:51:49.321Z,19.75
2023-12-10T07:54:16.550Z,14.10
2023-12-10T07:56:43.817Z,15.18
2023-12-10T07:59:11.006Z,19.10
2023-12-10T08:01:38.331Z,12.93
2023-12-10T08:04:05.767Z,14.45
2023-12-10T08:06:33.166Z,12.50
2023-12-10T08:09:02.111Z,14.02
2023-12-10T08:11:29.369Z,12.38
2023-12-10T08:13:57.840Z,14.48
2023-12-10T08:16:25.193Z,12.75
2023-12-10T08:18:52.532Z,18.83
2023-12-10T08:21:19.746Z,15.43
2023-12-10T08:23:47.180Z,12.32
2023-12-10T08:26:14.699Z,17.25
2023-12-10T08:28:42.378Z,16.48
2023-12-10T08:31:09.630Z,17.20
2023-12-10T08:33:38.297Z,12.63
2023-12-10T08:36:05.834Z,19.23
2023-12-10T08:38:33.094Z,12.70
2023-12-10T08:41:00.710Z,15.70
2023-12-10T08:43:27.978Z,16.45
2023-12-10T08:45:55.884Z,12.50
2023-12-10T08:48:23.419Z,19.58
2023-12-10T08:50:50.714Z,15.18
2023-12-10T08:53:18.414Z,11.98
2023-12-10T08:55:45.633Z,10.88
2023-12-10T08:58:12.916Z,17.48
2023-12-10T09:00:40.245Z,14.27
2023-12-10T09:03:07.485Z,13.77
2023-12-10T09:05:35.007Z,12.63
2023-12-10T09:08:02.883Z,10.88
2023-12-10T09:10:30.375Z,11.45
2023-12-10T09:12:57.732Z,19.27
2023-12-10T09:15:25.897Z,12.45
2023-12-10T09:17:53.208Z,12.38
2023-12-10T09:20:20.436Z,10.02
2023-12-10T09:22:47.700Z,22.35
2023-12-10T09:25:14.913Z,17.10
2023-12-10T09:27:42.129Z,18.17
2023-12-10T09:30:10.148Z,10.80
2023-12-10T09:32:37.780Z,20.20
2023-12-10T09:35:05.790Z,14.30
2023-12-10T09:37:33.655Z,13.77
2023-12-10T09:40:01.138Z,18.77
2023-12-10T09:42:28.682Z,17.67
2023-12-10T09:44:56.326Z,10.18
2023-12-10T09:47:26.942Z,13.95
2023-12-10T09:49:55.953Z,14.63
2023-12-10T09:52:23.257Z,11.77
2023-12-10T09:54:50.638Z,10.75
2023-12-10T09:57:18.066Z,15.32
2023-12-10T09:59:45.326Z,11.73
2023-12-10T10:02:13.629Z,8.68
2023-12-10T10:04:42.185Z,13.32
2023-12-10T10:07:10.165Z,10.38
2023-12-10T10:09:38.835Z,11.07
2023-12-10T10:12:07.419Z,17.05
2023-12-10T10:14:34.741Z,13.05
2023-12-10T10:17:02.272Z,17.92
2023-12-10T10:19:29.976Z,16.00
2023-12-10T10:21:57.421Z,12.40
2023-12-10T10:24:24.896Z,12.18
2023-12-10T10:26:54.876Z,15.40
2023-12-10T10:29:24.215Z,15.93
2023-12-10T10:31:52.756Z,15.13
2023-12-10T10:34:20.534Z,13.85
2023-12-10T10:36:47.884Z,10.30
2023-12-10T10:39:15.179Z,19.25
2023-12-10T10:41:43.697Z,12.25
2023-12-10T10:44:11.390Z,17.95
2023-12-10T10:46:38.967Z,11.77
2023-12-10T10:49:06.439Z,15.98
2023-12-10T10:51:34.611Z,15.55
2023-12-10T10:54:05.664Z,17.85
2023-12-10T10:56:33.583Z,11.27
2023-12-10T10:59:01.788Z,19.45
2023-12-10T11:01:55.350Z,13.60
2023-12-10T11:04:23.121Z,9.18
2023-12-10T11:06:52.399Z,10.40
2023-12-10T11:09:19.893Z,19.88
2023-12-10T11:11:47.297Z,7.45
2023-12-10T11:14:24.431Z,16.25
2023-12-10T11:17:03.808Z,12.02
2023-12-10T11:19:32.915Z,17.35
2023-12-10T11:22:03.669Z,15.43
2023-12-10T11:24:31.403Z,14.50
2023-12-10T11:27:00.138Z,19.70
2023-12-10T11:29:27.484Z,17.17
2023-12-10T11:31:54.949Z,16.23
2023-12-10T11:34:23.773Z,14.75
2023-12-10T11:36:51.177Z,13.85
2023-12-10T11:39:18.646Z,13.88
2023-12-10T11:44:17.055Z,16.55
2023-12-10T11:46:51.202Z,15.48
2023-12-10T11:49:19.753Z,10.27
2023-12-10T11:51:49.036Z,14.52
2023-12-10T11:54:17.334Z,11.80
2023-12-10T11:56:44.660Z,17.08
2023-12-10T11:59:12.953Z,9.43
2023-12-10T12:01:41.285Z,11.75
2023-12-10T12:04:08.986Z,11.00
2023-12-10T12:06:43.540Z,16.42
2023-12-10T12:09:21.945Z,11.55
2023-12-10T12:11:52.628Z,15.13
2023-12-10T12:14:21.271Z,17.00
2023-12-10T12:16:48.637Z,16.35
2023-12-10T12:19:28.270Z,12.52
2023-12-10T12:21:59.048Z,14.80
2023-12-10T12:24:26.712Z,15.52
2023-12-10T12:26:54.144Z,14.52
2023-12-10T12:29:21.347Z,11.90
2023-12-10T12:32:05.158Z,19.33
2023-12-10T12:34:36.157Z,19.85
2023-12-10T12:37:03.665Z,11.07
2023-12-10T12:39:31.069Z,15.43
2023-12-10T12:42:00.895Z,14.27
2023-12-10T12:44:28.138Z,16.77
2023-12-10T12:46:55.324Z,19.17
2023-12-10T12:49:22.698Z,19.92
2023-12-10T12:51:50.021Z,17.48
2023-12-10T12:54:17.222Z,10.88
2023-12-10T12:56:46.179Z,16.55
2023-12-10T12:59:16.708Z,18.05
2023-12-10T13:01:43.998Z,14.25
2023-12-10T13:04:11.513Z,14.18
2023-12-10T13:06:38.957Z,16.27
2023-12-10T13:09:06.241Z,13.82
2023-12-10T13:11:35.860Z,16.80
2023-12-10T13:14:03.814Z,17.27
2023-12-10T13:16:43.505Z,10.75
2023-12-10T13:19:11.104Z,13.10
2023-12-10T13:21:39.289Z,15.20
2023-12-10T13:24:07.861Z,21.92
2023-12-10T13:26:37.747Z,12.43
2023-12-10T13:29:05.030Z,26.27
2023-12-10T13:31:32.500Z,18.20
2023-12-10T13:33:59.885Z,13.85
2023-12-10T13:36:27.201Z,12.98
2023-12-10T13:38:54.785Z,16.58
2023-12-10T13:41:22.079Z,19.30
2023-12-10T13:43:49.554Z,12.82
2023-12-10T13:46:16.769Z,17.33
2023-12-10T13:48:44.149Z,9.98
2023-12-10T13:51:12.626Z,11.65
2023-12-10T13:53:39.823Z,14.52
2023-12-10T13:56:07.548Z,17.83
2023-12-10T13:58:34.852Z,17.25
2023-12-10T14:01:02.465Z,17.23
2023-12-10T14:03:30.798Z,29.08
2023-12-10T14:05:59.777Z,17.25
2023-12-10T14:08:26.980Z,15.63
2023-12-10T14:10:54.681Z,13.18
2023-12-10T14:13:21.932Z,13.13
2023-12-10T14:15:49.199Z,16.00
2023-12-10T14:18:16.490Z,13.32
2023-12-10T14:20:45.173Z,15.23
2023-12-10T14:23:12.360Z,13.00
2023-12-10T14:25:42.193Z,13.30
2023-12-10T14:28:12.548Z,14.60
2023-12-10T14:30:40.967Z,20.40
2023-12-10T14:33:08.631Z,17.77
2023-12-10T14:35:36.198Z,17.05
2023-12-10T14:38:04.632Z,11.32
2023-12-10T14:40:32.360Z,17.50
2023-12-10T14:42:59.702Z,14.13
2023-12-10T14:45:27.245Z,15.30
2023-12-10T14:47:54.661Z,11.15
2023-12-10T14:50:22.021Z,14.63
2023-12-10T14:52:49.385Z,12.45
2023-12-10T14:55:19.749Z,12.07
2023-12-10T14:57:48.508Z,13.75
2023-12-10T15:00:16.290Z,10.30
2023-12-10T15:02:43.635Z,14.68
2023-12-10T15:05:10.840Z,10.57
2023-12-10T15:07:43.395Z,13.65
2023-12-10T15:10:12.385Z,11.82
2023-12-10T15:12:40.398Z,11.95
2023-12-10T15:15:09.516Z,13.05
2023-12-10T15:17:38.947Z,6.97
2023-12-10T15:20:11.739Z,13.70
2023-12-10T15:22:38.965Z,9.57
2023-12-10T15:25:06.702Z,10.73
2023-12-10T15:27:34.265Z,10.25
2023-12-10T15:30:01.664Z,19.65
2023-12-10T15:32:28.844Z,10.98
2023-12-10T15:34:56.231Z,4.25
2023-12-10T15:37:23.961Z,8.73
2023-12-10T15:39:52.096Z,6.57
2023-12-10T15:42:19.545Z,12.63
2023-12-10T15:44:46.831Z,6.63
2023-12-10T15:47:15.941Z,15.32
2023-12-10T15:49:43.371Z,9.85
2023-12-10T15:52:12.458Z,9.02
2023-12-10T15:54:40.664Z,17.25
2023-12-10T15:57:08.097Z,9.35
2023-12-10T15:59:35.329Z,17.20
2023-12-10T16:02:03.942Z,19.17
2023-12-10T16:04:31.851Z,15.10
2023-12-10T16:06:59.460Z,13.18
2023-12-10T16:09:27.317Z,13.80
2023-12-10T16:11:54.695Z,9.52
2023-12-10T16:14:22.013Z,12.63
2023-12-10T16:16:49.289Z,13.70
2023-12-10T16:19:16.617Z,11.55
2023-12-10T16:21:43.878Z,16.13
2023-12-10T16:24:11.081Z,10.85
2023-12-10T16:26:38.961Z,17.05
2023-12-10T16:29:06.317Z,16.17
2023-12-10T16:31:34.467Z,10.70
2023-12-10T16:34:05.273Z,8.95
2023-12-10T16:36:32.717Z,10.13
2023-12-10T16:38:59.964Z,11.77
2023-12-10T16:41:27.289Z,10.48
2023-12-10T16:43:54.911Z,9.52
2023-12-10T16:46:22.097Z,10.13
2023-12-10T16:48:49.538Z,17.05
2023-12-10T16:51:17.368Z,10.73
2023-12-10T16:53:44.650Z,13.38
2023-12-10T16:56:12.589Z,12.40
2023-12-10T16:58:39.895Z,9.43
2023-12-10T17:01:07.503Z,14.18
2023-12-10T17:03:34.971Z,6.28
2023-12-10T17:06:02.629Z,12.68
2023-12-10T17:08:30.050Z,10.52
2023-12-10T17:10:57.295Z,13.82
2023-12-10T17:13:24.695Z,7.82
2023-12-10T17:15:52.972Z,12.43
2023-12-10T17:18:20.535Z,9.32
2023-12-10T17:20:50.055Z,7.97
2023-12-10T17:23:17.322Z,7.93
2023-12-10T17:25:44.618Z,14.45
2023-12-10T17:28:12.790Z,19.10
2023-12-10T17:30:41.230Z,9.45
2023-12-10T17:33:08.668Z,12.35
2023-12-10T17:35:36.062Z,12.93
2023-12-10T17:38:03.377Z,12.23
2023-12-10T17:40:30.574Z,10.80
2023-12-10T17:42:57.986Z,13.80
2023-12-10T17:45:28.692Z,6.95
2023-12-10T17:47:56.018Z,19.48
2023-12-10T17:50:23.317Z,11.07
2023-12-10T17:52:50.904Z,10.88
2023-12-10T17:55:18.806Z,11.88
2023-12-10T17:57:46.082Z,8.93
2023-12-10T18:00:15.821Z,11.27
2023-12-10T18:02:43.183Z,16.75
2023-12-10T18:05:11.587Z,15.10
2023-12-10T18:07:38.881Z,14.77
2023-12-10T18:10:06.609Z,16.30
2023-12-10T18:12:33.937Z,12.23
2023-12-10T18:15:01.164Z,14.20
2023-12-10T18:17:29.470Z,9.45
2023-12-10T18:22:52.494Z,15.43
2023-12-10T18:25:20.224Z,15.73
2023-12-10T18:27:51.829Z,14.82
2023-12-10T18:30:21.498Z,13.07
2023-12-10T18:32:49.896Z,17.08
2023-12-10T18:35:21.117Z,16.42
2023-12-10T18:37:48.363Z,15.77
2023-12-10T18:40:18.004Z,16.42
2023-12-10T18:42:46.175Z,15.07
2023-12-10T18:45:14.880Z,15.45
2023-12-10T18:47:42.188Z,23.73
2023-12-10T18:50:12.004Z,14.02
2023-12-10T18:52:39.283Z,15.95
2023-12-10T18:55:07.028Z,15.75
2023-12-10T18:57:34.615Z,14.45
2023-12-10T19:00:03.420Z,16.48
2023-12-10T19:02:30.820Z,17.40
2023-12-10T19:04:58.166Z,12.20
2023-12-10T19:07:25.381Z,18.63
2023-12-10T19:09:53.045Z,11.88
2023-12-10T19:12:20.372Z,10.07
2023-12-10T19:14:47.717Z,18.33
2023-12-10T19:17:14.961Z,19.73
2023-12-10T19:19:42.916Z,13.20
2023-12-10T19:22:10.356Z,11.73
2023-12-10T19:24:37.750Z,11.93
2023-12-10T19:27:05.138Z,10.70
2023-12-10T19:29:33.271Z,9.90
2023-12-10T19:32:00.616Z,14.68
2023-12-10T19:34:27.893Z,6.22
2023-12-10T19:36:55.389Z,11.48
2023-12-10T19:39:22.835Z,8.93
2023-12-10T19:41:50.648Z,7.90
2023-12-10T19:44:19.460Z,4.65
2023-12-10T19:46:46.859Z,8.32
2023-12-10T19:49:16.234Z,6.28
2023-12-10T19:51:44.990Z,6.97
2023-12-10T19:54:12.284Z,5.40
2023-12-10T19:56:39.747Z,3.95
2023-12-10T19:59:07.495Z,3.45
2023-12-10T20:01:35.139Z,6.88
2023-12-10T20:04:04.638Z,3.97
2023-12-10T20:06:32.668Z,2.25
2023-12-10T20:09:00.213Z,5.53
2023-12-10T20:11:31.644Z,3.80
2023-12-10T20:13:59.021Z,3.03
2023-12-10T20:16:26.921Z,4.03
2023-12-10T20:18:54.493Z,2.95
2023-12-10T20:21:22.115Z,3.60
2023-12-10T20:23:49.994Z,2.65
2023-12-10T20:26:24.772Z,3.55
2023-12-10T20:28:55.632Z,2.25
2023-12-10T20:31:23.762Z,1.75
2023-12-10T20:33:51.164Z,2.15
2023-12-10T20:36:22.044Z,2.78
2023-12-10T20:38:49.962Z,2.38
2023-12-10T20:41:17.407Z,1.80
2023-12-10T20:43:47.265Z,1.08
2023-12-10T20:46:14.833Z,1.55
2023-12-10T20:48:42.465Z,0.95
2023-12-10T20:51:09.771Z,1.10
2023-12-10T20:53:38.273Z,1.42
2023-12-10T20:56:05.999Z,1.45
2023-12-10T20:58:34.754Z,6.03
2023-12-10T21:01:02.439Z,2.78
2023-12-10T21:03:30.464Z,2.22
2023-12-10T21:05:58.314Z,1.50
2023-12-10T21:08:29.915Z,0.93
2023-12-10T21:10:57.344Z,0.93
2023-12-10T21:13:24.852Z,1.27
2023-12-10T21:15:53.362Z,2.60
2023-12-10T21:18:22.143Z,1.05
2023-12-10T21:20:49.580Z,2.72
2023-12-10T21:23:19.339Z,0.90
2023-12-10T21:25:46.708Z,1.98
2023-12-10T21:28:14.854Z,0.98
2023-12-10T21:30:42.285Z,1.42
2023-12-10T21:33:09.730Z,0.93
2023-12-10T21:35:37.480Z,1.67
2023-12-10T21:38:04.800Z,0.77
2023-12-10T21:40:32.059Z,0.63
2023-12-10T21:43:01.814Z,0.60
2023-12-10T21:45:29.429Z,1.58
2023-12-10T21:47:56.837Z,1.80
2023-12-10T21:50:24.185Z,1.15
2023-12-10T21:52:51.540Z,1.52
2023-12-10T21:55:18.824Z,2.15
2023-12-10T21:57:49.916Z,5.10
2023-12-10T22:00:17.732Z,1.40
2023-12-10T22:02:46.056Z,2.28
2023-12-10T22:05:13.514Z,2.85
2023-12-10T22:07:40.793Z,2.13
2023-12-10T22:10:09.253Z,2.65
2023-12-10T22:12:36.683Z,2.13
2023-12-10T22:15:04.900Z,2.25
2023-12-10T22:17:32.667Z,2.30
2023-12-10T22:20:00.496Z,3.88
2023-12-10T22:22:28.697Z,2.58
2023-12-10T22:24:59.577Z,3.70
2023-12-10T22:27:27.157Z,7.43
2023-12-10T22:29:54.560Z,2.78
2023-12-10T22:32:21.741Z,3.33
2023-12-10T22:34:48.976Z,5.07
2023-12-10T22:37:16.499Z,4.40
2023-12-10T22:39:43.905Z,4.43
2023-12-10T22:42:11.276Z,6.72
2023-12-10T22:44:38.548Z,6.68
2023-12-10T22:47:06.037Z,6.72
2023-12-10T22:49:33.433Z,7.93
2023-12-10T22:52:00.717Z,6.15
2023-12-10T22:54:28.040Z,5.43
2023-12-10T22:56:55.292Z,7.78
2023-12-10T22:59:22.479Z,6.22
2023-12-10T23:01:49.938Z,6.88
2023-12-10T23:04:17.268Z,7.85
2023-12-10T23:06:44.670Z,9.63
2023-12-10T23:09:11.867Z,8.00
2023-12-10T23:11:43.651Z,6.45
2023-12-10T23:14:10.837Z,11.48
2023-12-10T23:16:41.779Z,7.25
2023-12-10T23:19:10.233Z,14.48
2023-12-10T23:21:37.821Z,7.25
2023-12-10T23:24:05.508Z,9.23
2023-12-10T23:26:32.800Z,8.60
2023-12-10T23:29:00.098Z,13.73
2023-12-10T23:31:27.483Z,14.55
2023-12-10T23:33:54.848Z,11.55
2023-12-10T23:36:22.054Z,14.10
2023-12-10T23:38:49.488Z,15.07
2023-12-10T23:41:17.200Z,7.30
2023-12-10T23:43:44.455Z,15.65
2023-12-10T23:46:12.188Z,11.98
2023-12-10T23:48:40.104Z,11.07
2023-12-10T23:51:07.468Z,9.52
2023-12-10T23:53:34.701Z,10.93
2023-12-10T23:56:04.133Z,11.35
2023-12-10T23:58:31.319Z,11.40
